West Little Rock, Arkansas
Current Conditions -  °F | °C
As of 5:53 AM on Friday 19 Dec 2014 (Local Time) from KLIT Reporting Station
Overcast Overcast  
Wind Chill: 37°   Ceiling: 1000
Heat Index: 42°   Visibility: 7mi
Dew Point: 37°   Wind: 8mph
Humidity: 82%   Direction: 30°NNE
Pressure: 30.22"   Gusts: NA
Location:  34.78°N, 92.27°W
Report Text: KLIT 191153Z 03007KT 7SM OVC010 06/03 A3022 RMK AO2 SLP238 T00560028 10056 20056 56005
Loading
Personal Weather Stations






























Interactive Weather Map New forecast layout! Learn more

10-Day Weather Forecast

Advertisements
Track Severe Weather on mobile